sensor_id;sensor_type;location;lat;lon;timestamp;pressure;altitude;pressure_sealevel;temperature;humidity
64679;BME280;51094;53.864;27.676;2022-10-28T00:01:05;100190.28;;;8.99;86.86
64679;BME280;51094;53.864;27.676;2022-10-28T00:03:39;100167.22;;;8.93;86.67
64679;BME280;51094;53.864;27.676;2022-10-28T00:06:09;100214.06;;;9.25;86.63
64679;BME280;51094;53.864;27.676;2022-10-28T00:08:37;100119.53;;;8.44;85.83
64679;BME280;51094;53.864;27.676;2022-10-28T00:11:09;100214.31;;;9.20;86.35
64679;BME280;51094;53.864;27.676;2022-10-28T00:13:37;100063.13;;;8.13;86.02
64679;BME280;51094;53.864;27.676;2022-10-28T00:16:07;100186.13;;;8.78;85.89
64679;BME280;51094;53.864;27.676;2022-10-28T00:18:34;100214.41;;;9.02;86.32
64679;BME280;51094;53.864;27.676;2022-10-28T00:21:07;100207.66;;;8.97;86.45
64679;BME280;51094;53.864;27.676;2022-10-28T00:23:33;100144.59;;;8.44;86.56
64679;BME280;51094;53.864;27.676;2022-10-28T00:26:14;100211.47;;;8.90;86.65
64679;BME280;51094;53.864;27.676;2022-10-28T00:28:46;100251.44;;;8.86;86.22
64679;BME280;51094;53.864;27.676;2022-10-28T00:31:15;100178.56;;;8.74;86.71
64679;BME280;51094;53.864;27.676;2022-10-28T00:33:43;100216.66;;;8.90;87.09
64679;BME280;51094;53.864;27.676;2022-10-28T00:36:16;100246.19;;;8.88;86.79
64679;BME280;51094;53.864;27.676;2022-10-28T00:38:45;100287.06;;;8.83;87.29
64679;BME280;51094;53.864;27.676;2022-10-28T00:41:16;100215.63;;;8.76;87.41
64679;BME280;51094;53.864;27.676;2022-10-28T00:43:46;99869.31;;;6.21;87.33
64679;BME280;51094;53.864;27.676;2022-10-28T00:46:25;100214.25;;;8.68;87.46
64679;BME280;51094;53.864;27.676;2022-10-28T00:49:22;100171.66;;;8.38;87.12
64679;BME280;51094;53.864;27.676;2022-10-28T00:51:52;99996.19;;;7.13;88.05
64679;BME280;51094;53.864;27.676;2022-10-28T00:54:21;100216.19;;;8.65;87.60
64679;BME280;51094;53.864;27.676;2022-10-28T00:56:51;100192.44;;;8.73;87.69
64679;BME280;51094;53.864;27.676;2022-10-28T00:59:28;100228.13;;;8.67;86.86
64679;BME280;51094;53.864;27.676;2022-10-28T01:01:56;100200.91;;;8.76;87.72
64679;BME280;51094;53.864;27.676;2022-10-28T01:04:23;100201.91;;;8.74;86.79
64679;BME280;51094;53.864;27.676;2022-10-28T01:06:51;100204.66;;;8.71;86.80
64679;BME280;51094;53.864;27.676;2022-10-28T01:09:18;100071.34;;;7.85;87.52
64679;BME280;51094;53.864;27.676;2022-10-28T01:12:02;100217.94;;;8.82;87.44
64679;BME280;51094;53.864;27.676;2022-10-28T01:17:53;100182.94;;;8.90;86.68
64679;BME280;51094;53.864;27.676;2022-10-28T01:23:34;100188.78;;;8.77;87.01
64679;BME280;51094;53.864;27.676;2022-10-28T01:31:41;100184.84;;;8.87;87.37
64679;BME280;51094;53.864;27.676;2022-10-28T01:34:28;100109.16;;;8.44;87.25
64679;BME280;51094;53.864;27.676;2022-10-28T01:37:10;100193.41;;;8.89;86.61
64679;BME280;51094;53.864;27.676;2022-10-28T01:42:18;100171.25;;;8.82;86.61
64679;BME280;51094;53.864;27.676;2022-10-28T01:45:16;100200.69;;;8.81;87.01
64679;BME280;51094;53.864;27.676;2022-10-28T01:50:23;100172.75;;;8.68;87.38
64679;BME280;51094;53.864;27.676;2022-10-28T01:52:54;100174.06;;;8.60;87.66
64679;BME280;51094;53.864;27.676;2022-10-28T01:55:29;100176.94;;;8.54;87.80
64679;BME280;51094;53.864;27.676;2022-10-28T01:57:59;100060.63;;;7.93;88.30
64679;BME280;51094;53.864;27.676;2022-10-28T02:00:28;100137.25;;;8.34;88.27
64679;BME280;51094;53.864;27.676;2022-10-28T02:02:57;100161.94;;;8.60;88.13
64679;BME280;51094;53.864;27.676;2022-10-28T02:11:00;100130.06;;;8.76;87.58
64679;BME280;51094;53.864;27.676;2022-10-28T02:16:25;100144.09;;;8.72;87.76
64679;BME280;51094;53.864;27.676;2022-10-28T02:21:55;100107.66;;;8.21;88.04
64679;BME280;51094;53.864;27.676;2022-10-28T02:30:05;99916.59;;;7.37;88.38
64679;BME280;51094;53.864;27.676;2022-10-28T02:32:37;99997.16;;;7.84;88.38
64679;BME280;51094;53.864;27.676;2022-10-28T02:35:11;100208.41;;;8.82;88.55
64679;BME280;51094;53.864;27.676;2022-10-28T02:37:40;100175.59;;;8.81;88.89
64679;BME280;51094;53.864;27.676;2022-10-28T02:40:11;100172.88;;;8.84;89.33
64679;BME280;51094;53.864;27.676;2022-10-28T02:42:44;99991.06;;;7.85;88.46
64679;BME280;51094;53.864;27.676;2022-10-28T02:45:18;100099.31;;;8.33;88.51
64679;BME280;51094;53.864;27.676;2022-10-28T02:47:51;100150.13;;;8.89;89.03
64679;BME280;51094;53.864;27.676;2022-10-28T02:50:21;100160.00;;;9.00;88.93
64679;BME280;51094;53.864;27.676;2022-10-28T02:52:54;100150.16;;;9.07;88.28
64679;BME280;51094;53.864;27.676;2022-10-28T02:55:24;100105.59;;;8.98;88.95
64679;BME280;51094;53.864;27.676;2022-10-28T02:57:53;100022.25;;;8.54;88.90
64679;BME280;51094;53.864;27.676;2022-10-28T03:00:22;100116.06;;;9.30;89.11
64679;BME280;51094;53.864;27.676;2022-10-28T03:02:50;100139.56;;;9.60;88.99
64679;BME280;51094;53.864;27.676;2022-10-28T03:05:17;99986.59;;;8.75;88.14
64679;BME280;51094;53.864;27.676;2022-10-28T03:07:43;100109.41;;;9.57;88.49
64679;BME280;51094;53.864;27.676;2022-10-28T03:10:10;100039.91;;;9.14;88.31
64679;BME280;51094;53.864;27.676;2022-10-28T03:12:37;99970.78;;;8.97;88.29
64679;BME280;51094;53.864;27.676;2022-10-28T03:15:04;100133.91;;;10.00;87.92
64679;BME280;51094;53.864;27.676;2022-10-28T03:17:30;100136.88;;;9.94;87.49
64679;BME280;51094;53.864;27.676;2022-10-28T03:19:57;100134.53;;;9.90;87.12
64679;BME280;51094;53.864;27.676;2022-10-28T03:22:24;99997.31;;;9.02;87.15
64679;BME280;51094;53.864;27.676;2022-10-28T03:24:50;100004.34;;;9.16;87.76
64679;BME280;51094;53.864;27.676;2022-10-28T03:27:17;100124.44;;;9.99;87.66
64679;BME280;51094;53.864;27.676;2022-10-28T03:29:44;100111.97;;;10.06;87.73
64679;BME280;51094;53.864;27.676;2022-10-28T03:32:12;100111.63;;;10.12;87.63
64679;BME280;51094;53.864;27.676;2022-10-28T03:34:38;100021.13;;;9.57;86.30
64679;BME280;51094;53.864;27.676;2022-10-28T03:37:05;99988.56;;;9.36;86.88
64679;BME280;51094;53.864;27.676;2022-10-28T03:39:32;100056.59;;;9.74;86.36
64679;BME280;51094;53.864;27.676;2022-10-28T03:41:59;99987.41;;;9.42;86.74
64679;BME280;51094;53.864;27.676;2022-10-28T03:44:26;100101.75;;;9.87;86.22
64679;BME280;51094;53.864;27.676;2022-10-28T03:46:52;99995.50;;;9.36;86.37
64679;BME280;51094;53.864;27.676;2022-10-28T03:49:19;100103.09;;;9.94;85.88
64679;BME280;51094;53.864;27.676;2022-10-28T03:51:46;100013.72;;;9.18;85.79
64679;BME280;51094;53.864;27.676;2022-10-28T03:54:13;100105.25;;;9.71;85.88
64679;BME280;51094;53.864;27.676;2022-10-28T03:56:39;100112.44;;;9.65;86.50
64679;BME280;51094;53.864;27.676;2022-10-28T03:59:09;100086.13;;;9.40;86.83
64679;BME280;51094;53.864;27.676;2022-10-28T04:01:37;100118.63;;;9.63;86.97
64679;BME280;51094;53.864;27.676;2022-10-28T04:04:05;100116.81;;;9.65;87.17
64679;BME280;51094;53.864;27.676;2022-10-28T04:06:31;100114.69;;;9.56;87.04
64679;BME280;51094;53.864;27.676;2022-10-28T04:08:58;100050.75;;;9.22;87.51
64679;BME280;51094;53.864;27.676;2022-10-28T04:11:25;100108.56;;;9.57;87.15
64679;BME280;51094;53.864;27.676;2022-10-28T04:13:51;100110.41;;;9.39;87.51
64679;BME280;51094;53.864;27.676;2022-10-28T04:16:18;100037.94;;;8.86;87.87
64679;BME280;51094;53.864;27.676;2022-10-28T04:18:44;100021.25;;;9.07;87.37
64679;BME280;51094;53.864;27.676;2022-10-28T04:21:11;100096.25;;;9.45;87.46
64679;BME280;51094;53.864;27.676;2022-10-28T04:23:38;100007.41;;;8.91;88.00
64679;BME280;51094;53.864;27.676;2022-10-28T04:26:04;100099.63;;;9.47;88.37
64679;BME280;51094;53.864;27.676;2022-10-28T04:28:31;100006.34;;;8.95;88.27
64679;BME280;51094;53.864;27.676;2022-10-28T04:30:58;100105.56;;;9.49;87.96
64679;BME280;51094;53.864;27.676;2022-10-28T04:33:25;100096.03;;;9.49;88.07
64679;BME280;51094;53.864;27.676;2022-10-28T04:35:51;100095.66;;;9.55;88.35
64679;BME280;51094;53.864;27.676;2022-10-28T04:38:18;100056.72;;;9.40;88.51
64679;BME280;51094;53.864;27.676;2022-10-28T04:40:46;100088.72;;;9.56;87.69
64679;BME280;51094;53.864;27.676;2022-10-28T04:43:15;100103.47;;;9.55;87.93
64679;BME280;51094;53.864;27.676;2022-10-28T04:45:42;100051.53;;;9.40;87.99
64679;BME280;51094;53.864;27.676;2022-10-28T04:48:09;99956.84;;;8.82;88.21
64679;BME280;51094;53.864;27.676;2022-10-28T04:50:38;100084.13;;;9.61;87.78
64679;BME280;51094;53.864;27.676;2022-10-28T04:53:09;100081.97;;;9.69;88.20
64679;BME280;51094;53.864;27.676;2022-10-28T04:55:37;100084.31;;;9.74;87.62
64679;BME280;51094;53.864;27.676;2022-10-28T04:58:04;100046.63;;;9.51;88.13
64679;BME280;51094;53.864;27.676;2022-10-28T05:00:31;100078.19;;;9.75;88.34
64679;BME280;51094;53.864;27.676;2022-10-28T05:03:01;100050.78;;;9.53;88.09
64679;BME280;51094;53.864;27.676;2022-10-28T05:05:29;100084.97;;;9.77;87.66
64679;BME280;51094;53.864;27.676;2022-10-28T05:07:56;100079.44;;;9.67;87.78
64679;BME280;51094;53.864;27.676;2022-10-28T05:10:23;99897.94;;;8.68;87.96
64679;BME280;51094;53.864;27.676;2022-10-28T05:12:50;99965.59;;;9.13;87.91
64679;BME280;51094;53.864;27.676;2022-10-28T05:15:16;100089.53;;;9.89;88.00
64679;BME280;51094;53.864;27.676;2022-10-28T05:17:44;100087.50;;;9.94;88.12
64679;BME280;51094;53.864;27.676;2022-10-28T05:20:14;100046.34;;;9.71;87.71
64679;BME280;51094;53.864;27.676;2022-10-28T05:22:50;100089.84;;;9.83;87.45
64679;BME280;51094;53.864;27.676;2022-10-28T05:25:20;99996.31;;;9.05;87.51
64679;BME280;51094;53.864;27.676;2022-10-28T05:27:47;100085.31;;;9.71;88.38
64679;BME280;51094;53.864;27.676;2022-10-28T05:30:14;100089.66;;;9.71;88.20
64679;BME280;51094;53.864;27.676;2022-10-28T05:32:41;99956.81;;;8.99;88.53
64679;BME280;51094;53.864;27.676;2022-10-28T05:35:08;99997.69;;;9.27;87.61
64679;BME280;51094;53.864;27.676;2022-10-28T05:37:35;100080.03;;;9.73;87.80
64679;BME280;51094;53.864;27.676;2022-10-28T05:40:03;99944.13;;;8.78;87.95
64679;BME280;51094;53.864;27.676;2022-10-28T05:42:30;100073.06;;;9.42;88.13
64679;BME280;51094;53.864;27.676;2022-10-28T05:44:56;100101.06;;;9.52;88.43
64679;BME280;51094;53.864;27.676;2022-10-28T05:47:24;100002.66;;;8.99;88.78
64679;BME280;51094;53.864;27.676;2022-10-28T05:49:50;100012.47;;;9.10;88.79
64679;BME280;51094;53.864;27.676;2022-10-28T05:52:17;100096.03;;;9.65;88.95
64679;BME280;51094;53.864;27.676;2022-10-28T05:54:44;100100.69;;;9.58;88.71
64679;BME280;51094;53.864;27.676;2022-10-28T05:57:12;100060.63;;;9.31;88.21
64679;BME280;51094;53.864;27.676;2022-10-28T05:59:38;99937.63;;;8.53;88.75
64679;BME280;51094;53.864;27.676;2022-10-28T06:02:12;99991.16;;;8.87;88.66
64679;BME280;51094;53.864;27.676;2022-10-28T06:04:39;100098.47;;;9.52;88.30
64679;BME280;51094;53.864;27.676;2022-10-28T06:07:06;100085.97;;;9.59;89.41
64679;BME280;51094;53.864;27.676;2022-10-28T06:09:33;99965.53;;;8.81;88.59
64679;BME280;51094;53.864;27.676;2022-10-28T06:12:01;99899.75;;;8.33;88.85
64679;BME280;51094;53.864;27.676;2022-10-28T06:14:27;100041.75;;;9.45;88.89
64679;BME280;51094;53.864;27.676;2022-10-28T06:16:54;100077.25;;;9.60;88.13
64679;BME280;51094;53.864;27.676;2022-10-28T06:19:20;100094.66;;;9.58;88.96
64679;BME280;51094;53.864;27.676;2022-10-28T06:21:47;100022.13;;;9.23;88.40
64679;BME280;51094;53.864;27.676;2022-10-28T06:24:14;100062.00;;;9.38;88.25
64679;BME280;51094;53.864;27.676;2022-10-28T06:26:42;100089.47;;;9.58;88.58
64679;BME280;51094;53.864;27.676;2022-10-28T06:29:10;100014.63;;;9.02;88.29
64679;BME280;51094;53.864;27.676;2022-10-28T06:31:45;100009.22;;;9.06;88.48
64679;BME280;51094;53.864;27.676;2022-10-28T06:34:12;99815.22;;;7.98;88.59
64679;BME280;51094;53.864;27.676;2022-10-28T06:36:39;99981.59;;;9.05;88.55
64679;BME280;51094;53.864;27.676;2022-10-28T06:39:06;99841.88;;;8.17;87.87
64679;BME280;51094;53.864;27.676;2022-10-28T06:41:36;99987.19;;;9.13;88.29
64679;BME280;51094;53.864;27.676;2022-10-28T06:44:02;100101.97;;;9.67;87.98
64679;BME280;51094;53.864;27.676;2022-10-28T06:46:29;100089.75;;;9.69;88.42
64679;BME280;51094;53.864;27.676;2022-10-28T06:48:56;100025.25;;;9.46;88.03
64679;BME280;51094;53.864;27.676;2022-10-28T06:51:23;100070.25;;;9.78;88.21
64679;BME280;51094;53.864;27.676;2022-10-28T06:53:50;99952.47;;;9.00;88.17
64679;BME280;51094;53.864;27.676;2022-10-28T06:56:18;100085.31;;;9.71;87.66
64679;BME280;51094;53.864;27.676;2022-10-28T06:58:52;99947.84;;;8.89;87.64
64679;BME280;51094;53.864;27.676;2022-10-28T07:01:20;99953.41;;;8.82;87.93
64679;BME280;51094;53.864;27.676;2022-10-28T07:03:47;100067.31;;;9.52;87.92
64679;BME280;51094;53.864;27.676;2022-10-28T07:06:15;100086.81;;;9.75;87.33
64679;BME280;51094;53.864;27.676;2022-10-28T07:08:42;100082.81;;;9.85;87.93
64679;BME280;51094;53.864;27.676;2022-10-28T07:11:09;100006.06;;;9.32;88.22
64679;BME280;51094;53.864;27.676;2022-10-28T07:13:36;99910.78;;;9.03;87.82
64679;BME280;51094;53.864;27.676;2022-10-28T07:16:03;100083.47;;;10.05;87.23
64679;BME280;51094;53.864;27.676;2022-10-28T07:18:30;100080.19;;;10.01;86.56
64679;BME280;51094;53.864;27.676;2022-10-28T07:20:58;99935.31;;;8.97;86.02
64679;BME280;51094;53.864;27.676;2022-10-28T07:23:26;100080.06;;;9.88;86.76
64679;BME280;51094;53.864;27.676;2022-10-28T07:25:54;100081.72;;;9.89;87.21
64679;BME280;51094;53.864;27.676;2022-10-28T07:28:22;100080.72;;;9.92;86.55
64679;BME280;51094;53.864;27.676;2022-10-28T07:30:50;100079.34;;;10.00;87.15
64679;BME280;51094;53.864;27.676;2022-10-28T07:33:18;99984.63;;;9.45;86.63
64679;BME280;51094;53.864;27.676;2022-10-28T07:35:45;99998.34;;;9.62;86.69
64679;BME280;51094;53.864;27.676;2022-10-28T07:38:12;100097.31;;;10.21;86.50
64679;BME280;51094;53.864;27.676;2022-10-28T07:40:39;100091.75;;;10.11;85.77
64679;BME280;51094;53.864;27.676;2022-10-28T07:43:06;100088.75;;;10.03;85.56
64679;BME280;51094;53.864;27.676;2022-10-28T07:45:33;100085.31;;;10.02;86.20
64679;BME280;51094;53.864;27.676;2022-10-28T07:48:01;100007.59;;;9.52;85.82
64679;BME280;51094;53.864;27.676;2022-10-28T07:50:28;100058.00;;;9.95;85.97
64679;BME280;51094;53.864;27.676;2022-10-28T07:52:54;100086.75;;;10.24;86.57
64679;BME280;51094;53.864;27.676;2022-10-28T07:55:22;100072.38;;;10.17;85.37
64679;BME280;51094;53.864;27.676;2022-10-28T07:57:48;99891.59;;;8.90;84.63
64679;BME280;51094;53.864;27.676;2022-10-28T08:00:15;100094.19;;;10.14;85.43
64679;BME280;51094;53.864;27.676;2022-10-28T08:02:42;100006.91;;;9.49;85.17
64679;BME280;51094;53.864;27.676;2022-10-28T08:05:09;100095.19;;;10.12;85.01
64679;BME280;51094;53.864;27.676;2022-10-28T08:07:35;100058.19;;;9.92;85.19
64679;BME280;51094;53.864;27.676;2022-10-28T08:10:05;100080.53;;;10.11;85.47
64679;BME280;51094;53.864;27.676;2022-10-28T08:12:32;99921.00;;;9.22;85.31
64679;BME280;51094;53.864;27.676;2022-10-28T08:14:59;99879.56;;;8.89;85.54
64679;BME280;51094;53.864;27.676;2022-10-28T08:17:25;100020.47;;;9.85;85.60
64679;BME280;51094;53.864;27.676;2022-10-28T08:19:52;100084.16;;;10.24;85.08
64679;BME280;51094;53.864;27.676;2022-10-28T08:22:19;100068.38;;;10.11;84.54
64679;BME280;51094;53.864;27.676;2022-10-28T08:24:45;100087.69;;;10.23;85.13
64679;BME280;51094;53.864;27.676;2022-10-28T08:27:12;100086.00;;;10.22;85.33
64679;BME280;51094;53.864;27.676;2022-10-28T08:29:39;100029.03;;;9.87;85.46
64679;BME280;51094;53.864;27.676;2022-10-28T08:32:09;100085.06;;;10.23;85.71
64679;BME280;51094;53.864;27.676;2022-10-28T08:34:35;100089.59;;;10.19;85.18
64679;BME280;51094;53.864;27.676;2022-10-28T08:37:07;100090.59;;;10.32;84.88
64679;BME280;51094;53.864;27.676;2022-10-28T08:39:35;100031.28;;;9.93;84.84
64679;BME280;51094;53.864;27.676;2022-10-28T08:47:50;100060.41;;;9.98;84.93
64679;BME280;51094;53.864;27.676;2022-10-28T08:50:22;100047.69;;;9.94;85.29
64679;BME280;51094;53.864;27.676;2022-10-28T08:52:55;100083.22;;;10.25;85.36
64679;BME280;51094;53.864;27.676;2022-10-28T08:55:30;100030.34;;;9.94;85.01
64679;BME280;51094;53.864;27.676;2022-10-28T09:00:46;99956.97;;;9.59;84.50
64679;BME280;51094;53.864;27.676;2022-10-28T09:03:17;100071.03;;;10.41;85.09
64679;BME280;51094;53.864;27.676;2022-10-28T09:06:01;99942.00;;;9.49;85.09
64679;BME280;51094;53.864;27.676;2022-10-28T09:08:30;100041.88;;;10.05;84.58
64679;BME280;51094;53.864;27.676;2022-10-28T09:11:11;99787.63;;;8.79;83.85
64679;BME280;51094;53.864;27.676;2022-10-28T09:21:47;100061.84;;;10.80;83.58
64679;BME280;51094;53.864;27.676;2022-10-28T09:24:25;99929.22;;;9.91;83.08
64679;BME280;51094;53.864;27.676;2022-10-28T09:27:09;100090.09;;;10.86;83.79
64679;BME280;51094;53.864;27.676;2022-10-28T09:30:02;99690.34;;;8.72;83.50
64679;BME280;51094;53.864;27.676;2022-10-28T09:32:42;100045.78;;;10.43;83.58
64679;BME280;51094;53.864;27.676;2022-10-28T09:35:16;100013.53;;;10.90;83.90
64679;BME280;51094;53.864;27.676;2022-10-28T09:37:53;99976.13;;;10.48;82.63
64679;BME280;51094;53.864;27.676;2022-10-28T09:40:26;99978.44;;;10.83;81.91
64679;BME280;51094;53.864;27.676;2022-10-28T09:43:05;99894.22;;;10.41;82.54
64679;BME280;51094;53.864;27.676;2022-10-28T09:45:36;99977.84;;;10.92;82.59
64679;BME280;51094;53.864;27.676;2022-10-28T09:48:14;100058.22;;;11.68;81.53
64679;BME280;51094;53.864;27.676;2022-10-28T09:50:43;99949.41;;;11.17;80.94
64679;BME280;51094;53.864;27.676;2022-10-28T09:53:15;100050.28;;;11.83;80.55
64679;BME280;51094;53.864;27.676;2022-10-28T09:55:45;100023.06;;;11.60;78.94
64679;BME280;51094;53.864;27.676;2022-10-28T09:58:12;99988.31;;;11.47;79.67
64679;BME280;51094;53.864;27.676;2022-10-28T10:00:39;100039.09;;;11.95;80.04
64679;BME280;51094;53.864;27.676;2022-10-28T10:03:09;99831.81;;;10.70;79.14
64679;BME280;51094;53.864;27.676;2022-10-28T10:05:39;100035.31;;;11.87;78.97
64679;BME280;51094;53.864;27.676;2022-10-28T10:08:11;99878.09;;;10.79;78.74
64679;BME280;51094;53.864;27.676;2022-10-28T10:11:01;99941.31;;;10.93;79.44
64679;BME280;51094;53.864;27.676;2022-10-28T10:13:35;99976.84;;;11.50;80.36
64679;BME280;51094;53.864;27.676;2022-10-28T10:19:04;100030.41;;;12.22;78.06
64679;BME280;51094;53.864;27.676;2022-10-28T10:21:52;99962.31;;;11.60;77.96
64679;BME280;51094;53.864;27.676;2022-10-28T10:24:33;99941.31;;;11.49;78.75
64679;BME280;51094;53.864;27.676;2022-10-28T10:29:37;100058.81;;;11.99;78.21
64679;BME280;51094;53.864;27.676;2022-10-28T10:32:16;99951.66;;;11.77;76.97
64679;BME280;51094;53.864;27.676;2022-10-28T10:34:53;100046.91;;;12.22;77.94
64679;BME280;51094;53.864;27.676;2022-10-28T10:37:22;100024.06;;;12.26;78.15
64679;BME280;51094;53.864;27.676;2022-10-28T10:40:15;100020.63;;;12.13;78.13
64679;BME280;51094;53.864;27.676;2022-10-28T10:42:45;100023.53;;;12.08;78.61
64679;BME280;51094;53.864;27.676;2022-10-28T10:45:32;100031.56;;;11.91;78.77
64679;BME280;51094;53.864;27.676;2022-10-28T10:48:13;100016.13;;;11.88;79.08
64679;BME280;51094;53.864;27.676;2022-10-28T10:50:46;100015.28;;;11.87;78.78
64679;BME280;51094;53.864;27.676;2022-10-28T10:53:31;99884.69;;;10.70;79.91
64679;BME280;51094;53.864;27.676;2022-10-28T10:56:06;99985.38;;;11.66;79.48
64679;BME280;51094;53.864;27.676;2022-10-28T10:58:36;99959.97;;;11.70;79.23
64679;BME280;51094;53.864;27.676;2022-10-28T11:01:06;100006.94;;;12.22;79.02
64679;BME280;51094;53.864;27.676;2022-10-28T11:03:37;100003.84;;;12.29;79.08
64679;BME280;51094;53.864;27.676;2022-10-28T11:06:06;100005.81;;;12.26;78.55
64679;BME280;51094;53.864;27.676;2022-10-28T11:09:20;100013.47;;;12.02;79.19
64679;BME280;51094;53.864;27.676;2022-10-28T11:11:48;99811.56;;;10.75;78.81
64679;BME280;51094;53.864;27.676;2022-10-28T11:14:26;100001.81;;;12.08;79.46
64679;BME280;51094;53.864;27.676;2022-10-28T11:17:00;99915.81;;;11.54;79.21
64679;BME280;51094;53.864;27.676;2022-10-28T11:19:31;99836.84;;;11.14;79.36
64679;BME280;51094;53.864;27.676;2022-10-28T11:30:47;100003.22;;;12.26;78.63
64679;BME280;51094;53.864;27.676;2022-10-28T11:33:36;99968.69;;;12.22;78.89
64679;BME280;51094;53.864;27.676;2022-10-28T11:36:28;99987.50;;;12.40;78.25
64679;BME280;51094;53.864;27.676;2022-10-28T11:44:40;99985.66;;;12.03;77.02
64679;BME280;51094;53.864;27.676;2022-10-28T11:50:01;100004.66;;;12.17;78.16
64679;BME280;51094;53.864;27.676;2022-10-28T11:55:34;99977.66;;;12.31;77.56
64679;BME280;51094;53.864;27.676;2022-10-28T11:58:27;99983.84;;;12.43;78.16
64679;BME280;51094;53.864;27.676;2022-10-28T12:10:02;99976.00;;;12.30;77.24
64679;BME280;51094;53.864;27.676;2022-10-28T12:12:40;99971.19;;;12.11;77.41
64679;BME280;51094;53.864;27.676;2022-10-28T12:15:30;99975.06;;;12.31;77.56
64679;BME280;51094;53.864;27.676;2022-10-28T12:18:21;99980.97;;;12.20;78.01
64679;BME280;51094;53.864;27.676;2022-10-28T12:20:58;100012.09;;;11.96;78.82
64679;BME280;51094;53.864;27.676;2022-10-28T12:23:30;99959.34;;;11.66;79.49
64679;BME280;51094;53.864;27.676;2022-10-28T12:26:00;99750.13;;;10.45;79.49
64679;BME280;51094;53.864;27.676;2022-10-28T12:28:32;99877.72;;;11.26;79.87
64679;BME280;51094;53.864;27.676;2022-10-28T12:31:16;99981.06;;;11.79;80.46
64679;BME280;51094;53.864;27.676;2022-10-28T12:33:47;99970.91;;;11.75;80.65
64679;BME280;51094;53.864;27.676;2022-10-28T12:36:30;99867.81;;;11.04;81.51
64679;BME280;51094;53.864;27.676;2022-10-28T12:39:13;99954.56;;;11.31;82.08
64679;BME280;51094;53.864;27.676;2022-10-28T12:41:58;99954.31;;;11.63;81.97
64679;BME280;51094;53.864;27.676;2022-10-28T12:44:30;99968.59;;;11.70;82.01
64679;BME280;51094;53.864;27.676;2022-10-28T12:47:22;99954.75;;;11.70;82.13
64679;BME280;51094;53.864;27.676;2022-10-28T12:52:57;99965.38;;;11.66;82.36
64679;BME280;51094;53.864;27.676;2022-10-28T12:55:34;99959.44;;;11.64;82.39
64679;BME280;51094;53.864;27.676;2022-10-28T12:58:11;99896.53;;;11.03;82.51
64679;BME280;51094;53.864;27.676;2022-10-28T13:00:44;99965.97;;;11.57;82.43
64679;BME280;51094;53.864;27.676;2022-10-28T13:03:13;99712.47;;;9.53;82.51
64679;BME280;51094;53.864;27.676;2022-10-28T13:05:49;99960.66;;;11.59;82.63
64679;BME280;51094;53.864;27.676;2022-10-28T13:14:02;99958.03;;;11.59;82.64
64679;BME280;51094;53.864;27.676;2022-10-28T13:19:22;99961.38;;;11.61;82.29
64679;BME280;51094;53.864;27.676;2022-10-28T13:25:29;99964.84;;;11.61;82.33
64679;BME280;51094;53.864;27.676;2022-10-28T13:28:01;99971.31;;;11.69;81.53
64679;BME280;51094;53.864;27.676;2022-10-28T13:30:29;99903.41;;;11.30;80.82
64679;BME280;51094;53.864;27.676;2022-10-28T13:33:12;99971.75;;;11.34;80.64
64679;BME280;51094;53.864;27.676;2022-10-28T13:35:41;99816.72;;;10.89;79.45
64679;BME280;51094;53.864;27.676;2022-10-28T13:38:10;99915.41;;;11.33;78.06
64679;BME280;51094;53.864;27.676;2022-10-28T13:43:16;99971.53;;;11.65;77.62
64679;BME280;51094;53.864;27.676;2022-10-28T13:45:47;99967.31;;;11.77;78.16
64679;BME280;51094;53.864;27.676;2022-10-28T13:48:42;99981.22;;;11.76;77.81
64679;BME280;51094;53.864;27.676;2022-10-28T13:58:53;99853.00;;;11.19;77.38
64679;BME280;51094;53.864;27.676;2022-10-28T14:04:20;99944.41;;;11.41;78.09
64679;BME280;51094;53.864;27.676;2022-10-28T14:06:48;99934.50;;;11.60;78.24
64679;BME280;51094;53.864;27.676;2022-10-28T14:09:22;99966.41;;;11.64;78.53
64679;BME280;51094;53.864;27.676;2022-10-28T14:12:26;99949.75;;;11.66;78.74
64679;BME280;51094;53.864;27.676;2022-10-28T14:17:38;99840.38;;;10.57;79.84
64679;BME280;51094;53.864;27.676;2022-10-28T14:20:18;99874.13;;;11.00;80.19
64679;BME280;51094;53.864;27.676;2022-10-28T14:22:46;99826.16;;;10.77;80.32
64679;BME280;51094;53.864;27.676;2022-10-28T14:33:43;99940.09;;;11.54;81.26
64679;BME280;51094;53.864;27.676;2022-10-28T14:47:46;99827.09;;;10.76;81.84
64679;BME280;51094;53.864;27.676;2022-10-28T14:50:23;99923.47;;;11.43;81.93
64679;BME280;51094;53.864;27.676;2022-10-28T14:52:53;99928.78;;;11.41;82.20
64679;BME280;51094;53.864;27.676;2022-10-28T14:55:27;99900.50;;;11.22;82.25
64679;BME280;51094;53.864;27.676;2022-10-28T14:58:19;99922.19;;;11.36;82.30
64679;BME280;51094;53.864;27.676;2022-10-28T15:03:27;99924.44;;;11.27;83.09
64679;BME280;51094;53.864;27.676;2022-10-28T15:05:55;99929.06;;;11.37;82.99
64679;BME280;51094;53.864;27.676;2022-10-28T15:08:24;99924.16;;;11.32;82.57
64679;BME280;51094;53.864;27.676;2022-10-28T15:10:51;99916.84;;;11.24;82.83
64679;BME280;51094;53.864;27.676;2022-10-28T15:13:18;99910.81;;;11.24;83.15
64679;BME280;51094;53.864;27.676;2022-10-28T15:15:53;99916.75;;;11.26;83.09
64679;BME280;51094;53.864;27.676;2022-10-28T15:18:24;99950.47;;;11.27;83.22
64679;BME280;51094;53.864;27.676;2022-10-28T15:21:08;99915.94;;;11.25;83.25
64679;BME280;51094;53.864;27.676;2022-10-28T15:23:35;99872.38;;;11.00;83.15
64679;BME280;51094;53.864;27.676;2022-10-28T15:26:10;99914.16;;;11.26;83.47
64679;BME280;51094;53.864;27.676;2022-10-28T15:28:38;99923.00;;;11.23;83.58
64679;BME280;51094;53.864;27.676;2022-10-28T15:31:06;99724.00;;;9.91;83.79